createdAt,value
2023-01-29T00:02:57.079Z,62.03
2023-01-29T00:06:06.688Z,62.32
2023-01-29T00:09:11.436Z,62.21
2023-01-29T00:12:15.368Z,62.39
2023-01-29T00:15:20.732Z,62.49
2023-01-29T00:18:25.629Z,62.77
2023-01-29T00:21:31.137Z,62.46
2023-01-29T00:24:35.323Z,62.44
2023-01-29T00:27:39.339Z,62.07
2023-01-29T00:30:43.354Z,62.17
2023-01-29T00:33:48.613Z,62.40
2023-01-29T00:36:52.590Z,62.46
2023-01-29T00:39:56.881Z,61.98
2023-01-29T00:43:19.457Z,62.41
2023-01-29T00:46:23.540Z,62.69
2023-01-29T00:49:27.909Z,62.32
2023-01-29T00:52:33.377Z,62.42
2023-01-29T00:55:37.272Z,62.13
2023-01-29T00:58:41.824Z,62.14
2023-01-29T01:02:04.620Z,62.56
2023-01-29T01:05:14.207Z,62.64
2023-01-29T01:08:36.760Z,62.59
2023-01-29T01:11:40.610Z,62.33
2023-01-29T01:14:44.596Z,62.94
2023-01-29T01:17:55.782Z,62.67
2023-01-29T01:20:59.771Z,62.55
2023-01-29T01:24:05.878Z,62.54
2023-01-29T01:27:09.852Z,62.78
2023-01-29T01:30:16.576Z,62.60
2023-01-29T01:33:20.807Z,62.76
2023-01-29T01:36:24.738Z,63.10
2023-01-29T01:39:28.693Z,62.55
2023-01-29T01:42:33.854Z,62.44
2023-01-29T01:45:40.745Z,62.51
2023-01-29T01:48:49.130Z,62.48
2023-01-29T01:51:53.367Z,62.69
2023-01-29T01:54:58.921Z,62.64
2023-01-29T01:58:26.486Z,62.42
2023-01-29T02:01:30.500Z,62.53
2023-01-29T02:04:53.362Z,62.72
2023-01-29T02:08:17.670Z,62.65
2023-01-29T02:11:22.411Z,62.73
2023-01-29T02:14:26.911Z,62.86
2023-01-29T02:17:32.053Z,63.25
2023-01-29T02:20:38.226Z,63.02
2023-01-29T02:24:11.474Z,62.99
2023-01-29T02:27:21.736Z,62.83
2023-01-29T02:30:30.810Z,63.08
2023-01-29T02:34:04.732Z,62.83
2023-01-29T02:37:11.226Z,63.33
2023-01-29T02:40:25.700Z,63.61
2023-01-29T02:43:32.574Z,63.38
2023-01-29T02:46:51.314Z,63.22
2023-01-29T02:50:03.728Z,62.95
2023-01-29T02:53:21.462Z,63.41
2023-01-29T02:56:53.226Z,63.38
2023-01-29T03:00:13.592Z,63.38
2023-01-29T03:03:26.864Z,63.50
2023-01-29T03:06:35.281Z,63.50
2023-01-29T03:09:50.219Z,63.41
2023-01-29T03:13:05.634Z,63.02
2023-01-29T03:16:28.220Z,63.00
2023-01-29T03:19:39.883Z,63.44
2023-01-29T03:22:56.966Z,63.67
2023-01-29T03:26:19.863Z,63.57
2023-01-29T03:29:43.443Z,63.43
2023-01-29T03:32:52.266Z,63.25
2023-01-29T03:36:02.621Z,63.35
2023-01-29T03:39:11.587Z,63.30
2023-01-29T03:42:46.601Z,63.28
2023-01-29T03:45:57.948Z,63.63
2023-01-29T03:49:32.366Z,63.70
2023-01-29T03:52:55.886Z,63.70
2023-01-29T03:56:10.234Z,63.78
2023-01-29T03:59:22.870Z,63.91
2023-01-29T04:03:18.094Z,64.06
2023-01-29T04:06:28.199Z,64.30
2023-01-29T04:10:05.648Z,64.18
2023-01-29T04:13:14.271Z,64.28
2023-01-29T04:16:35.445Z,63.98
2023-01-29T04:20:01.509Z,64.17
2023-01-29T04:23:19.786Z,64.19
2023-01-29T04:26:51.226Z,64.00
2023-01-29T04:30:12.847Z,64.13
2023-01-29T04:33:34.866Z,64.13
2023-01-29T04:36:52.828Z,64.43
2023-01-29T04:40:09.815Z,64.61
2023-01-29T04:43:34.557Z,64.39
2023-01-29T04:46:50.663Z,64.39
2023-01-29T04:50:19.484Z,64.16
2023-01-29T04:53:37.396Z,63.91
2023-01-29T04:57:10.603Z,64.16
2023-01-29T05:00:21.381Z,63.94
2023-01-29T05:03:27.294Z,63.78
2023-01-29T05:06:32.777Z,63.90
2023-01-29T05:09:38.842Z,64.07
2023-01-29T05:12:47.162Z,64.09
2023-01-29T05:16:02.974Z,64.12
2023-01-29T05:19:07.477Z,63.99
2023-01-29T05:22:13.951Z,63.99
2023-01-29T05:25:25.139Z,63.99
2023-01-29T05:28:29.249Z,63.78
2023-01-29T05:31:33.208Z,64.38
2023-01-29T05:34:37.239Z,64.31
2023-01-29T05:37:41.307Z,64.08
2023-01-29T05:40:45.995Z,63.91
2023-01-29T05:43:49.951Z,64.07
2023-01-29T05:46:54.046Z,64.27
2023-01-29T05:49:58.003Z,64.27
2023-01-29T05:53:02.601Z,64.27
2023-01-29T05:56:06.733Z,64.25
2023-01-29T05:59:10.747Z,64.12
2023-01-29T06:02:14.763Z,64.21
2023-01-29T06:05:18.818Z,63.83
2023-01-29T06:08:22.793Z,63.91
2023-01-29T06:11:26.811Z,63.81
2023-01-29T06:14:30.727Z,64.15
2023-01-29T06:17:34.683Z,63.68
2023-01-29T06:20:39.332Z,64.01
2023-01-29T06:23:43.286Z,63.73
2023-01-29T06:26:47.276Z,63.66
2023-01-29T06:29:51.186Z,64.13
2023-01-29T06:32:58.947Z,63.66
2023-01-29T06:36:04.747Z,63.90
2023-01-29T06:39:08.765Z,63.88
2023-01-29T06:42:12.801Z,64.17
2023-01-29T06:45:16.927Z,63.87
2023-01-29T06:48:21.604Z,64.03
2023-01-29T06:51:25.671Z,63.76
2023-01-29T06:54:29.713Z,64.21
2023-01-29T06:57:33.695Z,64.27
2023-01-29T07:00:38.627Z,64.21
2023-01-29T07:03:43.589Z,64.19
2023-01-29T07:06:47.571Z,64.48
2023-01-29T07:09:51.515Z,64.48
2023-01-29T07:12:55.529Z,64.18
2023-01-29T07:16:06.244Z,64.48
2023-01-29T07:19:10.205Z,64.37
2023-01-29T07:22:14.418Z,64.18
2023-01-29T07:25:18.325Z,64.25
2023-01-29T07:28:23.055Z,63.96
2023-01-29T07:31:27.178Z,63.74
2023-01-29T07:34:31.268Z,63.29
2023-01-29T07:37:35.194Z,63.26
2023-01-29T07:40:39.181Z,63.16
2023-01-29T07:43:43.251Z,63.17
2023-01-29T07:46:47.164Z,63.35
2023-01-29T07:49:51.056Z,63.22
2023-01-29T07:52:55.194Z,63.14
2023-01-29T07:55:59.212Z,63.18
2023-01-29T07:59:03.431Z,62.70
2023-01-29T08:02:09.376Z,62.89
2023-01-29T08:05:13.385Z,62.86
2023-01-29T08:08:17.276Z,62.60
2023-01-29T08:11:21.236Z,63.03
2023-01-29T08:14:25.143Z,62.31
2023-01-29T08:17:29.052Z,62.61
2023-01-29T08:20:33.764Z,62.47
2023-01-29T08:23:37.668Z,62.72
2023-01-29T08:26:41.621Z,62.96
2023-01-29T08:29:45.524Z,62.66
2023-01-29T08:32:49.472Z,62.37
2023-01-29T08:35:53.695Z,62.72
2023-01-29T08:38:57.783Z,62.62
2023-01-29T08:42:01.684Z,62.71
2023-01-29T08:45:06.704Z,62.75
2023-01-29T08:48:11.161Z,62.75
2023-01-29T08:51:15.181Z,62.60
2023-01-29T08:54:19.080Z,62.45
2023-01-29T08:57:23.020Z,62.33
2023-01-29T09:00:26.976Z,62.61
2023-01-29T09:03:30.984Z,62.82
2023-01-29T09:06:35.256Z,62.81
2023-01-29T09:09:39.155Z,62.65
2023-01-29T09:12:43.187Z,62.64
2023-01-29T09:15:47.200Z,62.71
2023-01-29T09:18:52.756Z,62.55
2023-01-29T09:21:56.647Z,62.17
2023-01-29T09:25:00.579Z,62.19
2023-01-29T09:28:04.889Z,62.30
2023-01-29T09:31:08.848Z,62.26
2023-01-29T09:34:12.830Z,62.46
2023-01-29T09:37:17.872Z,62.34
2023-01-29T09:40:28.970Z,62.17
2023-01-29T09:43:45.978Z,62.30
2023-01-29T09:46:54.084Z,62.49
2023-01-29T09:50:05.721Z,62.75
2023-01-29T09:53:20.025Z,62.71
2023-01-29T09:56:29.197Z,63.25
2023-01-29T09:59:33.164Z,63.03
2023-01-29T10:02:43.359Z,63.31
2023-01-29T10:06:12.257Z,63.13
2023-01-29T10:09:44.333Z,63.06
2023-01-29T10:13:19.539Z,62.43
2023-01-29T10:16:45.473Z,62.36
2023-01-29T10:20:31.397Z,62.31
2023-01-29T10:23:44.207Z,62.30
2023-01-29T10:26:49.682Z,62.43
2023-01-29T10:29:55.527Z,62.10
2023-01-29T10:33:03.513Z,62.33
2023-01-29T10:36:13.248Z,62.72
2023-01-29T10:39:22.684Z,62.98
2023-01-29T10:42:35.555Z,63.04
2023-01-29T10:45:50.117Z,62.88
2023-01-29T10:49:08.771Z,63.03
2023-01-29T10:52:28.048Z,63.52
2023-01-29T10:55:42.712Z,63.60
2023-01-29T10:58:54.466Z,63.73
2023-01-29T11:02:00.355Z,63.86
2023-01-29T11:05:15.486Z,64.21
2023-01-29T11:08:28.451Z,64.27
2023-01-29T11:11:47.850Z,64.53
2023-01-29T11:14:57.282Z,64.90
2023-01-29T11:18:16.288Z,65.15
2023-01-29T11:21:20.684Z,65.00
2023-01-29T11:24:25.794Z,64.90
2023-01-29T11:27:35.450Z,65.13
2023-01-29T11:30:41.370Z,65.19
2023-01-29T11:33:46.528Z,65.10
2023-01-29T11:36:59.401Z,65.29
2023-01-29T11:40:35.004Z,65.65
2023-01-29T11:43:38.970Z,65.74
2023-01-29T11:46:43.028Z,65.71
2023-01-29T11:49:53.858Z,65.57
2023-01-29T11:53:01.771Z,65.47
2023-01-29T11:56:27.803Z,65.41
2023-01-29T11:59:50.022Z,65.36
2023-01-29T12:02:57.849Z,65.56
2023-01-29T12:06:21.932Z,65.61
2023-01-29T12:09:28.329Z,65.79
2023-01-29T12:12:42.454Z,65.86
2023-01-29T12:15:48.121Z,65.93
2023-01-29T12:19:04.623Z,66.04
2023-01-29T12:22:25.021Z,66.18
2023-01-29T12:25:53.461Z,66.47
2023-01-29T12:29:20.421Z,66.64
2023-01-29T12:32:39.730Z,66.97
2023-01-29T12:35:50.177Z,67.17
2023-01-29T12:38:55.430Z,67.40
2023-01-29T12:42:05.210Z,67.31
2023-01-29T12:45:10.965Z,67.37
2023-01-29T12:48:23.530Z,67.73
2023-01-29T12:52:00.870Z,67.76
2023-01-29T12:55:26.404Z,68.01
2023-01-29T12:58:38.171Z,68.08
2023-01-29T13:02:12.405Z,68.09
2023-01-29T13:05:16.733Z,68.35
2023-01-29T13:08:23.526Z,68.48
2023-01-29T13:11:41.457Z,68.51
2023-01-29T13:14:56.530Z,68.68
2023-01-29T13:18:36.800Z,69.05
2023-01-29T13:21:43.896Z,69.74
2023-01-29T13:25:02.314Z,69.86
2023-01-29T13:28:17.921Z,69.91
2023-01-29T13:31:29.714Z,70.09
2023-01-29T13:34:45.067Z,70.32
2023-01-29T13:37:54.530Z,70.47
2023-01-29T13:41:04.881Z,70.78
2023-01-29T13:44:21.415Z,71.03
2023-01-29T13:47:30.451Z,71.26
2023-01-29T13:50:38.881Z,71.34
2023-01-29T13:53:44.292Z,71.62
2023-01-29T13:57:00.219Z,71.59
2023-01-29T14:00:06.070Z,71.74
2023-01-29T14:03:11.940Z,71.89
2023-01-29T14:06:38.500Z,72.15
2023-01-29T14:09:42.493Z,72.47
2023-01-29T14:12:48.361Z,72.52
2023-01-29T14:16:18.724Z,72.51
2023-01-29T14:19:24.473Z,72.74
2023-01-29T14:22:30.403Z,72.73
2023-01-29T14:25:38.007Z,72.95
2023-01-29T14:28:43.047Z,72.95
2023-01-29T14:32:11.946Z,72.98
2023-01-29T14:35:18.911Z,73.21
2023-01-29T14:38:26.734Z,73.34
2023-01-29T14:41:33.493Z,73.41
2023-01-29T14:45:06.436Z,73.46
2023-01-29T14:48:10.505Z,73.66
2023-01-29T14:51:16.754Z,73.61
2023-01-29T14:54:28.080Z,73.69
2023-01-29T14:57:33.147Z,73.82
2023-01-29T15:00:38.828Z,73.82
2023-01-29T15:03:52.532Z,73.90
2023-01-29T15:07:06.609Z,74.00
2023-01-29T15:10:43.763Z,74.09
2023-01-29T15:13:53.546Z,74.04
2023-01-29T15:17:10.245Z,74.01
2023-01-29T15:20:38.204Z,74.07
2023-01-29T15:23:44.273Z,74.19
2023-01-29T15:26:48.412Z,74.31
2023-01-29T15:30:00.096Z,74.60
2023-01-29T15:33:04.755Z,74.48
2023-01-29T15:36:19.274Z,74.67
2023-01-29T15:39:25.529Z,74.59
2023-01-29T15:42:44.708Z,74.82
2023-01-29T15:45:50.301Z,74.76
2023-01-29T15:48:57.304Z,74.92
2023-01-29T15:52:07.820Z,74.77
2023-01-29T15:55:15.126Z,74.82
2023-01-29T15:58:28.342Z,74.90
2023-01-29T16:01:32.673Z,74.97
2023-01-29T16:04:36.786Z,74.87
2023-01-29T16:07:42.282Z,74.86
2023-01-29T16:10:50.177Z,74.87
2023-01-29T16:13:57.436Z,74.97
2023-01-29T16:17:35.562Z,74.79
2023-01-29T16:20:45.605Z,74.86
2023-01-29T16:23:52.283Z,75.00
2023-01-29T16:27:02.551Z,75.02
2023-01-29T16:30:07.604Z,75.02
2023-01-29T16:33:15.084Z,74.94
2023-01-29T16:36:21.883Z,75.02
2023-01-29T16:39:38.550Z,75.19
2023-01-29T16:42:42.596Z,75.18
2023-01-29T16:46:25.303Z,75.31
2023-01-29T16:49:29.209Z,75.54
2023-01-29T16:52:34.791Z,75.62
2023-01-29T16:55:41.768Z,75.61
2023-01-29T16:58:50.783Z,75.71
2023-01-29T17:01:56.032Z,75.68
2023-01-29T17:05:08.514Z,75.41
2023-01-29T17:08:33.772Z,75.41
2023-01-29T17:11:41.795Z,75.40
2023-01-29T17:14:57.800Z,75.59
2023-01-29T17:18:02.419Z,75.39
2023-01-29T17:21:06.321Z,75.49
2023-01-29T17:24:10.232Z,75.52
2023-01-29T17:27:19.986Z,75.62
2023-01-29T17:30:28.735Z,75.82
2023-01-29T17:33:33.661Z,75.71
2023-01-29T17:36:37.663Z,75.86
2023-01-29T17:39:42.815Z,75.74
2023-01-29T17:42:47.203Z,75.93
2023-01-29T17:45:51.577Z,75.65
2023-01-29T17:48:55.770Z,75.63
2023-01-29T17:52:00.187Z,75.72
2023-01-29T17:55:04.983Z,75.84
2023-01-29T17:58:16.110Z,75.81
2023-01-29T18:01:20.006Z,75.78
2023-01-29T18:04:24.238Z,75.88
2023-01-29T18:07:28.263Z,75.85
2023-01-29T18:10:32.168Z,75.83
2023-01-29T18:13:36.342Z,75.78
2023-01-29T18:16:42.039Z,75.96
2023-01-29T18:19:46.067Z,76.07
2023-01-29T18:22:50.596Z,75.97
2023-01-29T18:25:57.688Z,75.88
2023-01-29T18:29:01.699Z,75.98
2023-01-29T18:32:06.022Z,76.00
2023-01-29T18:35:10.238Z,75.89
2023-01-29T18:38:14.263Z,75.77
2023-01-29T18:41:18.274Z,75.53
2023-01-29T18:44:22.190Z,75.44
2023-01-29T18:47:26.203Z,75.41
2023-01-29T18:50:30.169Z,75.32
2023-01-29T18:53:34.123Z,75.35
2023-01-29T18:56:38.151Z,75.35
2023-01-29T19:00:02.934Z,75.08
2023-01-29T19:03:06.840Z,75.23
2023-01-29T19:06:11.829Z,75.15
2023-01-29T19:09:16.333Z,75.09
2023-01-29T19:12:21.273Z,75.13
2023-01-29T19:15:25.502Z,74.98
2023-01-29T19:18:29.504Z,75.08
2023-01-29T19:21:35.985Z,75.22
2023-01-29T19:24:41.131Z,75.10
2023-01-29T19:27:45.972Z,75.10
2023-01-29T19:30:50.123Z,74.92
2023-01-29T19:33:54.873Z,75.09
2023-01-29T19:36:58.703Z,75.04
2023-01-29T19:40:02.664Z,74.85
2023-01-29T19:43:06.745Z,75.01
2023-01-29T19:46:10.715Z,75.02
2023-01-29T19:49:14.649Z,75.21
2023-01-29T19:52:49.724Z,75.25
2023-01-29T19:56:00.208Z,75.23
2023-01-29T19:59:05.235Z,75.19
2023-01-29T20:02:09.830Z,75.39
2023-01-29T20:05:13.933Z,75.24
2023-01-29T20:08:18.511Z,74.90
2023-01-29T20:11:23.958Z,74.94
2023-01-29T20:14:27.973Z,75.19
2023-01-29T20:17:31.986Z,74.92
2023-01-29T20:20:39.789Z,75.17
2023-01-29T20:23:45.876Z,75.14
2023-01-29T20:26:50.456Z,75.32
2023-01-29T20:29:54.393Z,75.03
2023-01-29T20:32:58.706Z,74.98
2023-01-29T20:36:05.976Z,75.26
2023-01-29T20:39:09.898Z,75.09
2023-01-29T20:42:14.154Z,75.09
2023-01-29T20:45:18.160Z,75.37
2023-01-29T20:48:22.367Z,75.26
2023-01-29T20:51:26.396Z,75.21
2023-01-29T20:54:33.195Z,75.08
2023-01-29T20:57:38.437Z,75.28
2023-01-29T21:00:42.539Z,75.12
2023-01-29T21:03:47.570Z,75.05
2023-01-29T21:06:51.471Z,75.36
2023-01-29T21:09:55.419Z,75.31
2023-01-29T21:12:59.336Z,75.58
2023-01-29T21:16:03.948Z,75.55
2023-01-29T21:19:09.332Z,75.40
2023-01-29T21:22:13.413Z,75.45
2023-01-29T21:25:20.204Z,75.42
2023-01-29T21:28:24.155Z,75.53
2023-01-29T21:31:28.141Z,75.52
2023-01-29T21:34:32.080Z,75.59
2023-01-29T21:37:38.008Z,75.48
2023-01-29T21:40:41.960Z,75.41
2023-01-29T21:43:45.927Z,75.57
2023-01-29T21:46:49.884Z,75.55
2023-01-29T21:49:53.853Z,75.55
2023-01-29T21:52:57.971Z,75.47
2023-01-29T21:56:04.137Z,75.63
2023-01-29T21:59:09.076Z,75.55
2023-01-29T22:02:14.709Z,75.68
2023-01-29T22:05:20.372Z,75.61
2023-01-29T22:08:24.406Z,75.94
2023-01-29T22:11:28.718Z,76.14
2023-01-29T22:14:32.740Z,76.07
2023-01-29T22:17:38.578Z,76.49
2023-01-29T22:20:42.469Z,76.60
2023-01-29T22:23:49.528Z,76.57
2023-01-29T22:26:53.517Z,76.78
2023-01-29T22:29:57.523Z,76.95
2023-01-29T22:33:01.932Z,76.90
2023-01-29T22:36:06.843Z,76.90
2023-01-29T22:39:10.902Z,76.87
2023-01-29T22:42:14.796Z,76.87
2023-01-29T22:45:18.881Z,76.82
2023-01-29T22:48:23.767Z,76.69
2023-01-29T22:51:27.785Z,76.60
2023-01-29T22:54:31.676Z,76.70
2023-01-29T22:57:36.989Z,76.83
2023-01-29T23:00:40.918Z,76.62
2023-01-29T23:03:44.856Z,76.64
2023-01-29T23:06:48.764Z,76.54
2023-01-29T23:09:52.699Z,76.56
2023-01-29T23:12:56.677Z,76.39
2023-01-29T23:16:00.859Z,76.42
2023-01-29T23:19:05.456Z,76.54
2023-01-29T23:22:09.358Z,76.39
2023-01-29T23:25:13.794Z,76.39
2023-01-29T23:28:17.665Z,76.37
2023-01-29T23:31:22.144Z,76.32
2023-01-29T23:34:26.155Z,76.42
2023-01-29T23:37:30.135Z,76.38
2023-01-29T23:40:34.197Z,76.48
2023-01-29T23:43:38.145Z,76.44
2023-01-29T23:46:42.106Z,76.49
2023-01-29T23:49:46.230Z,76.40
2023-01-29T23:52:50.124Z,76.33
2023-01-29T23:55:59.519Z,76.33
2023-01-29T23:59:03.482Z,76.38
